Tiempo atmosférico en la estación meteorológica de Jaca, Huesca (830 m.)



Fecha
DESCASC
Temp. máxima en grados centígrados (hora)
DESCASC
Temp. mínima en grados centígrados (hora)
DESCASC
Temp. media en grados centígrados
DESCASC
Racha de viento máxima en m/sg (hora)
DESCASC
Velocidad máxima media en intervalos de 10 minutos(hora)
DESCASC
Precipitaciones diarias en mm
DESCASC
Precipitaciones de 00:00 a 06:00 en mm
DESCASC
Precipitaciones de 06:00 a 12:00 en mm
DESCASC
Precipitaciones de 12:00 a 18:00 en mm
DESCASC
Precipitaciones de 18:00 a 24:00 en mm
DESCASC
02-07-2020 28.1 (16:50) 14.2 (23:50) 21.2 10.56 (19:00) 3.33 (19:00) 0 0 0 0 0
01-07-2020 30.1 (15:20) 16.9 (06:40) 23.5 10.83 (17:10) 4.17 (17:10) 0 0 0 0 0
30-06-2020 30.3 (15:40) 13.8 (00:00) 22 5.83 (22:50) 3.33 (03:20) 3 0 0 0 3
29-06-2020 29.1 (16:20) 14.2 (00:00) 21.7 6.67 (20:40) 2.78 (17:30) 0 0 0 0 0
28-06-2020 28.8 (15:40) 16.9 (00:00) 22.8 6.94 (21:00) 3.89 (21:20) 0 0 0 0 0
27-06-2020 27.9 (16:30) 12.2 (00:00) 20 7.22 (08:00) 4.17 (23:30) 0 0 0 0 0
26-06-2020 27.9 (15:00) 14.1 (00:00) 21 13.61 (20:40) 4.72 (20:40) 6.7 0.2 0 0 6.5
25-06-2020 30.9 (15:40) 12.3 (00:00) 21.6 11.67 (21:30) 5.56 (21:30) 1.3 0 0.2 0 1.1
24-06-2020 31.4 (15:40) 14.7 (00:00) 23 10 (19:00) 6.11 (19:00) 6 0 0 0.9 5.1
23-06-2020 30.6 (15:40) 14.7 (00:00) 22.7 7.78 (22:50) 3.89 (22:20) 0 0 0 0 0
22-06-2020 28.8 (17:10) 9.9 (00:00) 19.3 6.94 (22:10) 4.17 (22:00) 0 0 0 0 0
21-06-2020 27.6 (16:10) 10.1 (00:00) 18.9 14.17 (21:30) 8.33 (21:30) 0 0 0 0 0
20-06-2020 26 (17:20) 11.6 (00:00) 18.8 8.06 (16:10) 3.89 (03:30) 0 0 0 0 0
19-06-2020 24.3 (18:10) 10.5 (00:00) 17.4 7.22 (22:20) 4.44 (22:30) 0 0 0 0 0
18-06-2020 21.7 (16:20) 8.8 (00:00) 15.3 8.33 (08:10) 2.78 (08:10) 1.5 0 1.5 0 0
17-06-2020 20.2 (16:20) 6.4 (00:00) 13.3 8.33 (13:30) 3.33 (22:30) 0 0 0 0 0
16-06-2020 20.2 (15:10) 10.6 (00:00) 15.4 8.33 (16:00) 5.56 (17:00) 4.5 0.4 3.2 0.9 0
15-06-2020 22.5 (14:40) 9.3 (00:00) 15.9 8.33 (17:40) 3.33 (18:10) 0 0 0 0 0
14-06-2020 21.2 (15:40) 8.2 (00:00) 14.7 5.83 (18:50) 3.61 (21:40) 0 0 0 0 0
13-06-2020 19.3 (17:00) 8 (00:00) 13.6 8.61 (16:10) 4.17 (23:10) 0.6 0.1 0.4 0.1 0
12-06-2020 15.2 (16:10) 7.8 (00:00) 11.5 7.78 (20:30) 5 (20:30) 9.6 4 0 0 5.6
11-06-2020 15.8 (16:10) 9.1 (00:00) 12.5 6.67 (23:40) 3.61 (00:10) 2.1 0.5 0 0.6 1
10-06-2020 20.6 (15:40) 4.4 (00:00) 12.5 8.61 (15:50) 3.33 (23:00) 0 0 0 0 0
09-06-2020 20.2 (16:10) 4.8 (00:00) 12.5 11.67 (19:00) 7.5 (18:20) 0 0 0 0 0
08-06-2020 18.8 (14:30) 3.6 (07:00) 11.2 14.17 (17:50) 9.44 (18:00) 0 0 0 0 0
07-06-2020 19.1 (14:50) 6.3 (00:00) 12.7 8.89 (17:30) 5.28 (17:30) 0.1 0.1 0 0 0

Gráficas

Temp. máximas Temp. mínimas Temp. medias Precipitaciones Rachas de viento máximas Velocidades máximas media en intervalos de 10 minutos

Datos horarios

Fecha y hora oficial Temperatura (ºC) Velocidad del viento (km/h) Dirección del viento Racha (km/h) Dirección de racha Precipitación (mm) Presión (hPa) Tendencia (hPa) Humedad (%)
2020-07-06 23:00:00 15 8 Oeste 23 Noroeste 0 -- -- 59
2020-07-06 22:00:00 16.6 10 Noroeste 26 Noroeste 0 -- -- 53
2020-07-06 21:00:00 19.5 13 Noroeste 26 Noroeste 0 -- -- 46
2020-07-06 20:00:00 22.2 11 Noroeste 39 Noroeste 0 -- -- 40
2020-07-06 19:00:00 24.7 13 Noroeste 36 Noroeste 0 -- -- 37
2020-07-06 18:00:00 26.1 13 Noroeste 44 Noroeste 0 -- -- 34
2020-07-06 17:00:00 27.5 11 Noroeste 33 Oeste 0 -- -- 32
2020-07-06 16:00:00 28.8 10 Noroeste 33 Noroeste 0 -- -- 33
2020-07-06 15:00:00 29 6 Oeste 29 Noroeste 0 -- -- 33
2020-07-06 14:00:00 28.4 7 Oeste 28 Sudoeste 0 -- -- 36
2020-07-06 13:00:00 26.8 8 Oeste 20 Oeste 0 -- -- 40
2020-07-06 12:00:00 24.4 7 Noroeste 18 Noroeste 0 -- -- 46
2020-07-06 11:00:00 22 5 Oeste 15 Noroeste 0 -- -- 52
2020-07-06 10:00:00 19.5 5 Noroeste 14 Noroeste 0 -- -- 61
2020-07-06 09:00:00 17.3 4 Oeste 12 Noroeste 0 -- -- 72
2020-07-06 08:00:00 13.3 0 Calma 8 Nordeste 0 -- -- 85
2020-07-06 07:00:00 13.4 0 Calma 4 Nordeste 0 -- -- 81
2020-07-06 06:00:00 14.2 0 Calma 5 Sur 0 -- -- 81
2020-07-06 05:00:00 14.3 0 Calma 8 Noroeste 0 -- -- 79
2020-07-06 04:00:00 15.3 0 Calma 12 Nordeste 0 -- -- 78
2020-07-06 03:00:00 16.1 3 Norte 9 Noroeste 0 -- -- 72
2020-07-06 02:00:00 17.9 2 Noroeste 12 Noroeste 0 -- -- 67
2020-07-06 01:00:00 19.3 6 Sudoeste 12 Sudoeste 0 -- -- 62
2020-07-06 00:00:00 19.7 5 Norte 10 Noroeste 0 -- -- 59
2020-07-05 23:00:00 21.5 0 Calma 18 Nordeste 0 -- -- 52
2020-07-05 22:00:00 22.6 9 Nordeste 19 Nordeste 0 -- -- 49
2020-07-05 21:00:00 25.7 4 Norte 23 Noroeste 0 -- -- 40
2020-07-05 20:00:00 29.1 8 Noroeste 24 Noroeste 0 -- -- 32
2020-07-05 19:00:00 30.3 4 Oeste 19 Sudoeste 0 -- -- 28
2020-07-05 18:00:00 31.3 5 Noroeste 18 Sur 0 -- -- 27
2020-07-05 17:00:00 31.1 4 Oeste 17 Oeste 0 -- -- 26
2020-07-05 16:00:00 31.1 6 Oeste 20 Noroeste 0 -- -- 26
2020-07-05 15:00:00 30.3 5 Oeste 17 Oeste 0 -- -- 26
2020-07-05 14:00:00 28.9 5 Noroeste 20 Norte 0 -- -- 28
2020-07-05 13:00:00 27.7 4 Oeste 17 Noroeste 0 -- -- 31
2020-07-05 12:00:00 26.3 5 Oeste 15 Sudoeste 0 -- -- 33
2020-07-05 11:00:00 23.4 0 Calma 10 Sudoeste 0 -- -- 35
2020-07-05 10:00:00 19.1 3 Norte 7 Noroeste 0 -- -- 45
2020-07-05 09:00:00 15.3 0 Calma 10 Nordeste 0 -- -- 57
2020-07-05 08:00:00 11.3 3 Nordeste 12 Nordeste 0 -- -- 70
2020-07-05 07:00:00 10.9 0 Calma 15 Nordeste 0 -- -- 70
2020-07-05 06:00:00 11.2 6 Nordeste 15 Este 0 -- -- 68
2020-07-05 05:00:00 11.5 3 Nordeste 14 Nordeste 0 -- -- 66
2020-07-05 04:00:00 12.7 8 Nordeste 18 Nordeste 0 -- -- 63
2020-07-05 03:00:00 13.1 7 Nordeste 20 Nordeste 0 -- -- 61
2020-07-05 02:00:00 13.8 0 Calma 6 Nordeste 0 -- -- 55
2020-07-05 01:00:00 14.9 2 Nordeste 10 Nordeste 0 -- -- 53
2020-07-05 00:00:00 16.5 0 Calma 8 Nordeste 0 -- -- 43
2020-07-04 23:00:00 18.7 0 Calma 12 Oeste 0 -- -- 33
2020-07-04 22:00:00 20.3 4 Noroeste 18 Noroeste 0 -- -- 30
2020-07-04 21:00:00 23 6 Noroeste 20 Noroeste 0 -- -- 28
2020-07-04 20:00:00 25.8 8 Noroeste 23 Noroeste 0 -- -- 25
2020-07-04 19:00:00 26.9 7 Oeste 25 Oeste 0 -- -- 26
2020-07-04 18:00:00 28 8 Noroeste 25 Oeste 0 -- -- 27
2020-07-04 17:00:00 27.8 5 Noroeste 20 Sudoeste 0 -- -- 28
2020-07-04 16:00:00 26.9 9 Sudoeste 19 Sudoeste 0 -- -- 27
2020-07-04 15:00:00 26.3 4 Oeste 22 Sudoeste 0 -- -- 27
2020-07-04 14:00:00 25 7 Oeste 19 Sudoeste 0 -- -- 28
2020-07-04 13:00:00 22.9 7 Noroeste 20 Noroeste 0 -- -- 34
2020-07-04 12:00:00 20.8 6 Noroeste 16 Noroeste 0 -- -- 38
2020-07-04 11:00:00 18.2 3 Sudoeste 10 Noroeste 0 -- -- 48
2020-07-04 10:00:00 14.7 0 Calma 6 Norte 0 -- -- 59
2020-07-04 09:00:00 10.1 3 Nordeste 8 Nordeste 0 -- -- 73
2020-07-04 08:00:00 6.9 3 Nordeste 13 Nordeste 0 -- -- 83
2020-07-04 07:00:00 6.7 8 Nordeste 17 Nordeste 0 -- -- 83
2020-07-04 06:00:00 6.6 0 Calma 12 Nordeste 0 -- -- 83
2020-07-04 05:00:00 7.4 0 Calma 9 Nordeste 0 -- -- 81
2020-07-04 04:00:00 8.1 4 Nordeste 12 Norte 0 -- -- 79
2020-07-04 03:00:00 8.7 2 Nordeste 7 Nordeste 0 -- -- 75
2020-07-04 02:00:00 9.5 4 Nordeste 14 Norte 0 -- -- 73
2020-07-04 01:00:00 10.8 5 Noroeste 14 Oeste 0 -- -- 68
2020-07-04 00:00:00 12.1 4 Noroeste 10 Noroeste 0 -- -- 61
2020-07-03 23:00:00 13.8 6 Oeste 15 Oeste 0 -- -- 51
2020-07-03 22:00:00 15.6 6 Oeste 15 Noroeste 0 -- -- 43
2020-07-03 21:00:00 18.2 10 Noroeste 28 Noroeste 0 -- -- 38
2020-07-03 20:00:00 20.7 7 Noroeste 30 Oeste 0 -- -- 36
2020-07-03 19:00:00 22.5 7 Noroeste 33 Noroeste 0 -- -- 33
2020-07-03 18:00:00 24 10 Noroeste 32 Noroeste 0 -- -- 32
2020-07-03 17:00:00 24.5 8 Noroeste 31 Noroeste 0 -- -- 32
2020-07-03 16:00:00 24.9 6 Noroeste 28 Noroeste 0 -- -- 33
2020-07-03 15:00:00 24.5 7 Oeste 26 Noroeste 0 -- -- 33
2020-07-03 14:00:00 23.4 6 Oeste 23 Sudoeste 0 -- -- 34
2020-07-03 13:00:00 22.4 5 Oeste 27 Noroeste 0 -- -- 36
2020-07-03 12:00:00 20.3 6 Noroeste 24 Oeste 0 -- -- 40
2020-07-03 11:00:00 18 5 Noroeste 19 Oeste 0 -- -- 49
2020-07-03 10:00:00 15.3 6 Noroeste 17 Oeste 0 -- -- 57
2020-07-03 09:00:00 13.2 6 Oeste 15 Oeste 0 -- -- 67
2020-07-03 08:00:00 10.2 6 Oeste 13 Noroeste 0 -- -- 78
2020-07-03 07:00:00 10.2 3 Oeste 11 Noroeste 0 -- -- 77
2020-07-03 06:00:00 10.6 3 Sur 16 Noroeste 0 -- -- 77
2020-07-03 05:00:00 10.6 8 Noroeste 15 Noroeste 0 -- -- 76
2020-07-03 04:00:00 11.2 6 Noroeste 16 Noroeste 0 -- -- 73
2020-07-03 03:00:00 11.6 7 Noroeste 17 Noroeste 0 -- -- 70
2020-07-03 02:00:00 12.4 7 Noroeste 17 Noroeste 0 -- -- 67
2020-07-03 01:00:00 13.6 8 Oeste 19 Noroeste 0 -- -- 62
2020-07-03 00:00:00 14.3 9 Oeste 18 Noroeste 0 -- -- 61
2020-07-02 23:00:00 15 8 Oeste 19 Oeste 0 -- -- 57
2020-07-02 22:00:00 16.8 9 Noroeste 23 Norte 0 -- -- 48
2020-07-02 21:00:00 19.2 10 Norte 26 Norte 0 -- -- 42
2020-07-02 20:00:00 22.1 5 Noroeste 30 Noroeste 0 -- -- 40
2020-07-02 19:00:00 24.5 12 Noroeste 38 Noroeste 0 -- -- 37
2020-07-02 18:00:00 25.7 6 Oeste 27 Noroeste 0 -- -- 35
2020-07-02 17:00:00 27.7 7 Oeste 29 Noroeste 0 -- -- 33
2020-07-02 16:00:00 27.4 7 Noroeste 24 Noroeste 0 -- -- 33
2020-07-02 15:00:00 26.8 6 Noroeste 25 Noroeste 0 -- -- 37
2020-07-02 14:00:00 26.3 5 Noroeste 22 Noroeste 0 -- -- 43
2020-07-02 13:00:00 24.9 7 Noroeste 21 Noroeste 0 -- -- 48
2020-07-02 12:00:00 23.2 2 Noroeste 13 Oeste 0 -- -- 54
2020-07-02 11:00:00 20.2 3 Oeste 14 Noroeste 0 -- -- 63
2020-07-02 10:00:00 17.9 3 Noroeste 10 Noroeste 0 -- -- 72
2020-07-02 09:00:00 16.1 2 Oeste 8 Noroeste 0 -- -- 79
2020-07-02 08:00:00 14.7 0 Calma 7 Oeste 0 -- -- 83
2020-07-02 07:00:00 14.5 0 Calma 5 Sur 0 -- -- 82
2020-07-02 06:00:00 14.7 2 Este 8 Sudeste 0 -- -- 81
2020-07-02 05:00:00 14.8 0 Calma 3 Oeste 0 -- -- 80
2020-07-02 04:00:00 15.2 0 Calma 6 Noroeste 0 -- -- 78
2020-07-02 03:00:00 15.5 3 Noroeste 5 Noroeste 0 -- -- 76
2020-07-02 02:00:00 15.9 0 Calma 9 Noroeste 0 -- -- 75
2020-07-02 01:00:00 16.8 4 Noroeste 12 Noroeste 0 -- -- 70
2020-07-02 00:00:00 17.7 6 Noroeste 14 Oeste 0 -- -- 67
2020-07-01 23:00:00 19.1 7 Oeste 15 Noroeste 0 -- -- 61
2020-07-01 22:00:00 21.3 6 Noroeste 17 Noroeste 0 -- -- 53
2020-07-01 21:00:00 23.2 7 Oeste 24 Noroeste 0 -- -- 47
2020-07-01 20:00:00 25.6 8 Norte 23 Noroeste 0 -- -- 37
2020-07-01 19:00:00 27 9 Norte 23 Oeste 0 -- -- 35
2020-07-01 18:00:00 27.3 10 Norte 39 Noroeste 0 -- -- 33
2020-07-01 17:00:00 29.2 14 Noroeste 29 Noroeste 0 -- -- 34
2020-07-01 16:00:00 28.6 3 Oeste 21 Noroeste 0 -- -- 38
2020-07-01 15:00:00 29.7 8 Noroeste 27 Noroeste 0 -- -- 34
2020-07-01 14:00:00 29 5 Sudoeste 23 Oeste 0 -- -- 35
2020-07-01 13:00:00 28.5 3 Noroeste 24 Noroeste 0 -- -- 40
2020-07-01 12:00:00 26.3 3 Norte 11 Norte 0 -- -- 44
2020-07-01 11:00:00 24.4 4 Noroeste 9 Noroeste 0 -- -- 58
2020-07-01 10:00:00 22.6 2 Norte 9 Nordeste 0 -- -- 62
2020-07-01 09:00:00 19.1 6 Nordeste 18 Nordeste 0 -- -- 72
2020-07-01 08:00:00 17.3 8 Nordeste 21 Nordeste 0 -- -- 79
2020-07-01 07:00:00 17.2 10 Nordeste 26 Nordeste 0 -- -- 83
2020-07-01 06:00:00 17.2 11 Nordeste 19 Nordeste 0 -- -- 83
2020-07-01 05:00:00 17.6 4 Nordeste 19 Nordeste 0 -- -- 82
2020-07-01 04:00:00 18.1 6 Nordeste 14 Nordeste 0 -- -- 81
2020-07-01 03:00:00 18.8 6 Este 24 Sudeste 0 -- -- 76
2020-07-01 02:00:00 18.9 5 Este 18 Este 0 -- -- 77
2020-07-01 01:00:00 19.4 0 Calma 12 Nordeste 0 -- -- 77
2020-07-01 00:00:00 19.7 5 Sudeste 20 Este 0 -- -- 72
2020-06-30 23:00:00 21.4 6 Sudeste 21 Nordeste 3 -- -- 73
2020-06-30 22:00:00 24.1 0 Calma 11 Sudoeste 0 -- -- 53
2020-06-30 21:00:00 25 3 Noroeste 8 Noroeste 0 -- -- 49
2020-06-30 20:00:00 26 2 Oeste 12 Noroeste 0 -- -- 47
2020-06-30 19:00:00 26.8 4 Oeste 13 Oeste 0 -- -- 46
2020-06-30 18:00:00 27.7 5 Noroeste 15 Noroeste 0 -- -- 44
2020-06-30 17:00:00 29.9 4 Oeste 20 Noroeste 0 -- -- 40
2020-06-30 16:00:00 30 6 Oeste 18 Sudoeste 0 -- -- 40
2020-06-30 15:00:00 30 5 Oeste 19 Sudoeste 0 -- -- 40
2020-06-30 14:00:00 28.6 5 Noroeste 17 Noroeste 0 -- -- 43
2020-06-30 13:00:00 27.5 5 Noroeste 14 Sudoeste 0 -- -- 47
2020-06-30 12:00:00 25.1 4 Norte 9 Sur 0 -- -- 53
2020-06-30 11:00:00 22.3 0 Calma 7 Nordeste 0 -- -- 61
2020-06-30 10:00:00 18.6 0 Calma 7 Oeste 0 -- -- 74
2020-06-30 09:00:00 17 0 Calma 8 Sudoeste 0 -- -- 81
2020-06-30 08:00:00 15.1 3 Norte 10 Norte 0 -- -- 87
2020-06-30 07:00:00 14.4 6 Nordeste 13 Nordeste 0 -- -- 87
2020-06-30 06:00:00 14 0 Calma 9 Nordeste 0 -- -- 85
2020-06-30 05:00:00 14.5 3 Norte 13 Nordeste 0 -- -- 85
2020-06-30 04:00:00 15 2 Nordeste 19 Nordeste 0 -- -- 83
2020-06-30 03:00:00 15.4 7 Nordeste 16 Nordeste 0 -- -- 83
2020-06-30 02:00:00 16 0 Calma 5 Nordeste 0 -- -- 74
2020-06-30 01:00:00 17.1 0 Calma 7 Noroeste 0 -- -- 70
2020-06-30 00:00:00 17.9 2 Nordeste 11 Oeste 0 -- -- 64
2020-06-29 23:00:00 19.4 4 Noroeste 17 Noroeste 0 -- -- 57
2020-06-29 22:00:00 20.8 9 Noroeste 21 Noroeste 0 -- -- 51
2020-06-29 21:00:00 23.8 9 Noroeste 24 Noroeste 0 -- -- 46
2020-06-29 20:00:00 26.5 8 Noroeste 20 Noroeste 0 -- -- 40
2020-06-29 19:00:00 27.7 6 Oeste 17 Oeste 0 -- -- 36
2020-06-29 18:00:00 28.7 4 Oeste 22 Noroeste 0 -- -- 37
2020-06-29 17:00:00 28.6 8 Noroeste 21 Oeste 0 -- -- 38
2020-06-29 16:00:00 28.3 5 Norte 17 Noroeste 0 -- -- 42
2020-06-29 15:00:00 25.9 6 Norte 18 Noroeste 0 -- -- 44
2020-06-29 14:00:00 27.6 3 Noroeste 15 Noroeste 0 -- -- 43
2020-06-29 13:00:00 25.7 5 Norte 17 Noroeste 0 -- -- 47
2020-06-29 12:00:00 24 4 Noroeste 14 Oeste 0 -- -- 52
2020-06-29 11:00:00 21.2 4 Noroeste 10 Noroeste 0 -- -- 55
2020-06-29 10:00:00 19.3 3 Noroeste 10 Noroeste 0 -- -- 63
2020-06-29 09:00:00 17.2 0 Calma 7 Sudoeste 0 -- -- 72
2020-06-29 08:00:00 15.1 0 Calma 4 Sur 0 -- -- 81
2020-06-29 07:00:00 14.3 0 Calma -- -- 0 -- -- 80
2020-06-29 06:00:00 14.5 0 Calma 5 Nordeste 0 -- -- 77
2020-06-29 05:00:00 15 2 Nordeste 7 Oeste 0 -- -- 74
2020-06-29 04:00:00 15.9 2 Oeste 7 Oeste 0 -- -- 70
2020-06-29 03:00:00 16.2 4 Noroeste 12 Noroeste 0 -- -- 67
2020-06-29 02:00:00 16.9 5 Noroeste 10 Sudoeste 0 -- -- 65
2020-06-29 01:00:00 17.5 5 Noroeste 9 Noroeste 0 -- -- 63
2020-06-29 00:00:00 18.2 5 Noroeste 10 Noroeste 0 -- -- 61
2020-06-28 23:00:00 19.4 3 Norte 18 Nordeste 0 -- -- 57
2020-06-28 22:00:00 20.6 10 Nordeste 24 Norte 0 -- -- 53
2020-06-28 21:00:00 23.2 13 Nordeste 25 Nordeste 0 -- -- 44
2020-06-28 20:00:00 26.3 6 Noroeste 16 Noroeste 0 -- -- 38
2020-06-28 19:00:00 27.2 6 Sudoeste 18 Norte 0 -- -- 38
2020-06-28 18:00:00 27.7 6 Sudoeste 17 Oeste 0 -- -- 40
2020-06-28 17:00:00 28.2 5 Noroeste 22 Noroeste 0 -- -- 40
2020-06-28 16:00:00 28.3 8 Norte 19 Noroeste 0 -- -- 43
2020-06-28 15:00:00 27.6 5 Oeste 17 Noroeste 0 -- -- 42
2020-06-28 14:00:00 25.6 5 Oeste 15 Noroeste 0 -- -- 47
2020-06-28 13:00:00 26.1 5 Norte 13 Noroeste 0 -- -- 47
2020-06-28 12:00:00 24.2 4 Norte 9 Oeste 0 -- -- 51
2020-06-28 11:00:00 21 3 Sudoeste 9 Oeste 0 -- -- 61
2020-06-28 10:00:00 19.8 3 Noroeste 9 Noroeste 0 -- -- 67
2020-06-28 09:00:00 17.9 4 Norte 12 Norte 0 -- -- 70
2020-06-28 08:00:00 17.4 7 Nordeste 14 Nordeste 0 -- -- 67
2020-06-28 07:00:00 17.4 4 Nordeste 12 Nordeste 0 -- -- 64
2020-06-28 06:00:00 17.4 3 Este 10 Nordeste 0 -- -- 64
2020-06-28 05:00:00 17.5 3 Sudeste 10 Nordeste 0 -- -- 64
2020-06-28 04:00:00 17.6 2 Este 14 Nordeste 0 -- -- 64
2020-06-28 03:00:00 17.6 2 Este 12 Norte 0 -- -- 63
2020-06-28 02:00:00 17.7 3 Nordeste 19 Nordeste 0 -- -- 63
2020-06-28 01:00:00 17.5 10 Nordeste 20 Nordeste 0 -- -- 65
2020-06-28 00:00:00 18.5 8 Nordeste 25 Nordeste 0 -- -- 61
2020-06-27 23:00:00 20.3 12 Nordeste 25 Nordeste 0 -- -- 53
2020-06-27 22:00:00 21.5 10 Nordeste 18 Nordeste 0 -- -- 45
2020-06-27 21:00:00 23.8 4 Noroeste 19 Noroeste 0 -- -- 39
2020-06-27 20:00:00 25.1 4 Noroeste 16 Noroeste 0 -- -- 34
2020-06-27 19:00:00 26.9 5 Noroeste 18 Noroeste 0 -- -- 34
2020-06-27 18:00:00 27.6 2 Noroeste 16 Noroeste 0 -- -- 34
2020-06-27 17:00:00 26.7 8 Norte 14 Noroeste 0 -- -- 35
2020-06-27 16:00:00 27.4 5 Norte 19 Noroeste 0 -- -- 33
2020-06-27 15:00:00 27.4 2 Oeste 15 Sudoeste 0 -- -- 34
2020-06-27 14:00:00 26.4 4 Noroeste 15 Sudoeste 0 -- -- 37
2020-06-27 13:00:00 25.3 8 Norte 15 Norte 0 -- -- 37
2020-06-27 12:00:00 24 6 Sudeste 17 Sur 0 -- -- 35
2020-06-27 11:00:00 22.5 6 Sudeste 14 Sur 0 -- -- 40
2020-06-27 10:00:00 18.6 0 Calma 10 Norte 0 -- -- 58
2020-06-27 09:00:00 15.1 6 Norte 19 Nordeste 0 -- -- 68
2020-06-27 08:00:00 13.1 13 Nordeste 26 Nordeste 0 -- -- 70
2020-06-27 07:00:00 12.4 13 Nordeste 24 Nordeste 0 -- -- 73
2020-06-27 06:00:00 12.4 10 Nordeste 22 Nordeste 0 -- -- 76
2020-06-27 05:00:00 13 10 Nordeste 23 Nordeste 0 -- -- 74
2020-06-27 04:00:00 13.2 8 Nordeste 19 Sur 0 -- -- 74
2020-06-27 03:00:00 13.6 11 Nordeste 24 Nordeste 0 -- -- 73
2020-06-27 02:00:00 13.9 9 Nordeste 24 Nordeste 0 -- -- 74
2020-06-27 01:00:00 14.2 3 Nordeste 13 Este 0 -- -- 68
2020-06-27 00:00:00 14.4 8 Nordeste 15 Nordeste 0 -- -- 72
2020-06-26 23:00:00 15.3 5 Este 15 Sudeste 0 -- -- 65
2020-06-26 22:00:00 15.1 6 Este 26 Sur 0 -- -- 68
2020-06-26 21:00:00 16.9 12 Sudeste 49 Este 0 -- -- 57
2020-06-26 20:00:00 16.3 10 Este 31 Sudeste 0.1 -- -- 72
2020-06-26 19:00:00 15.7 9 Este 40 Sur 6.4 -- -- 75
2020-06-26 18:00:00 22.9 2 Nordeste 21 Este 0 -- -- 35
2020-06-26 17:00:00 24.7 6 Este 25 Sur 0 -- -- 33
2020-06-26 16:00:00 25.3 10 Sur 33 Sudeste 0 -- -- 28
2020-06-26 15:00:00 27.3 14 Sudeste 31 Sur 0 -- -- 28
2020-06-26 14:00:00 26.8 10 Sudeste 33 Sur 0 -- -- 27
2020-06-26 13:00:00 26.5 12 Sudeste 37 Sudeste 0 -- -- 28
2020-06-26 12:00:00 25.3 12 Sudeste 30 Sudeste 0 -- -- 29
2020-06-26 11:00:00 23.9 10 Sudeste 28 Sudeste 0 -- -- 34
2020-06-26 10:00:00 20.5 5 Sudeste 15 Sudeste 0 -- -- 61
2020-06-26 09:00:00 17.3 3 Este 15 Sudeste 0 -- -- 72
2020-06-26 08:00:00 14.3 4 Nordeste 10 Este 0 -- -- 78
2020-06-26 07:00:00 14.4 2 Nordeste 12 Este 0 -- -- 76
2020-06-26 06:00:00 15.4 5 Este 22 Este 0 -- -- 72
2020-06-26 05:00:00 15.7 3 Este 19 Sudeste 0 -- -- 70
2020-06-26 04:00:00 15.4 4 Este 13 Este 0 -- -- 79
2020-06-26 03:00:00 15.6 6 Este 15 Sudeste 0 -- -- 82
2020-06-26 02:00:00 16.3 5 Este 22 Sudeste 0.2 -- -- 78
2020-06-26 01:00:00 16.7 4 Sudeste 17 Sudeste 0 -- -- 77
2020-06-26 00:00:00 16.6 5 Este 23 Nordeste 0 -- -- 81
2020-06-25 23:00:00 17.2 6 Nordeste 17 Sudoeste 1.1 -- -- 77
2020-06-25 22:00:00 19.9 3 Norte 42 Norte 0 -- -- 52
2020-06-25 21:00:00 20.9 13 Norte 35 Noroeste 0 -- -- 52
2020-06-25 20:00:00 24.3 3 Nordeste 19 Sur 0 -- -- 38
2020-06-25 19:00:00 26.7 5 Sudoeste 11 Sudoeste 0 -- -- 31
2020-06-25 18:00:00 27.9 4 Oeste 21 Noroeste 0 -- -- 31
2020-06-25 17:00:00 30.1 5 Oeste 22 Norte 0 -- -- 29
2020-06-25 16:00:00 30.3 8 Oeste 24 Norte 0 -- -- 29
2020-06-25 15:00:00 29.6 4 Nordeste 12 Noroeste 0 -- -- 28
2020-06-25 14:00:00 29.4 4 Sudeste 18 Sudeste 0 -- -- 28
2020-06-25 13:00:00 27.9 5 Sudeste 15 Sur 0 -- -- 28
2020-06-25 12:00:00 26.3 4 Sudeste 15 Sudeste 0 -- -- 31
2020-06-25 11:00:00 23.7 3 Sur 12 Sur 0 -- -- 42
2020-06-25 10:00:00 20.1 4 Sudeste 11 Sudeste 0 -- -- 53
2020-06-25 09:00:00 16.5 2 Nordeste 14 Nordeste 0.2 -- -- 70
2020-06-25 08:00:00 13.5 4 Nordeste 22 Nordeste 0 -- -- 78
2020-06-25 07:00:00 13 6 Nordeste 23 Nordeste 0 -- -- 77
2020-06-25 06:00:00 12.5 4 Nordeste 17 Nordeste 0 -- -- 82
2020-06-25 05:00:00 12.9 3 Nordeste 13 Nordeste 0 -- -- 83
2020-06-25 04:00:00 13 3 Nordeste 26 Nordeste 0 -- -- 83
2020-06-25 03:00:00 13.4 10 Nordeste 23 Norte 0 -- -- 83
2020-06-25 02:00:00 14.3 4 Nordeste 18 Nordeste 0 -- -- 81
2020-06-25 01:00:00 14.9 5 Nordeste 25 Nordeste 0 -- -- 79
2020-06-25 00:00:00 14.7 13 Nordeste 29 Nordeste 0 -- -- 82
2020-06-24 23:00:00 15.6 8 Nordeste 26 Nordeste 0 -- -- 76
2020-06-24 22:00:00 15.7 5 Este 26 Sudeste 0.5 -- -- 83
2020-06-24 21:00:00 16.4 6 Este 21 Este 0.5 -- -- 81
2020-06-24 20:00:00 16.5 8 Este 24 Sudeste 1.4 -- -- 77
2020-06-24 19:00:00 15.3 22 Nordeste 36 Nordeste 2.7 -- -- 85
2020-06-24 18:00:00 18.5 8 Nordeste 29 Este 0.3 -- -- 59
2020-06-24 17:00:00 22.4 10 Sudeste 32 Sudeste 0.6 -- -- 53
2020-06-24 16:00:00 29.1 4 Oeste 27 Noroeste 0 -- -- 37
2020-06-24 15:00:00 30.8 8 Noroeste 23 Noroeste 0 -- -- 33
2020-06-24 14:00:00 30 7 Noroeste 19 Noroeste 0 -- -- 35
2020-06-24 13:00:00 29 7 Noroeste 19 Noroeste 0 -- -- 37
2020-06-24 12:00:00 27.9 4 Noroeste 11 Noroeste 0 -- -- 37
2020-06-24 11:00:00 26.9 2 Sur 13 Este 0 -- -- 40
2020-06-24 10:00:00 23 2 Nordeste 7 Sudeste 0 -- -- 51
2020-06-24 09:00:00 19.7 3 Nordeste 13 Nordeste 0 -- -- 58
2020-06-24 08:00:00 16.5 8 Nordeste 22 Nordeste 0 -- -- 64
2020-06-24 07:00:00 15.7 8 Nordeste 21 Nordeste 0 -- -- 63
2020-06-24 06:00:00 16.8 8 Nordeste 27 Nordeste 0 -- -- 57
2020-06-24 05:00:00 16.2 9 Nordeste 21 Nordeste 0 -- -- 57
2020-06-24 04:00:00 17.2 4 Este 20 Nordeste 0 -- -- 54
2020-06-24 03:00:00 16.4 4 Nordeste 22 Nordeste 0 -- -- 55
2020-06-24 02:00:00 17.9 10 Nordeste 28 Nordeste 0 -- -- 48
2020-06-24 01:00:00 18.6 9 Nordeste 21 Nordeste 0 -- -- 47
2020-06-24 00:00:00 19 12 Nordeste 24 Nordeste 0 -- -- 46
2020-06-23 23:00:00 20.2 3 Este 28 Este 0 -- -- 42
2020-06-23 22:00:00 21.8 9 Nordeste 21 Nordeste 0 -- -- 38
2020-06-23 21:00:00 24.6 3 Nordeste 8 Nordeste 0 -- -- 33
2020-06-23 20:00:00 28.3 4 Sudoeste 12 Noroeste 0 -- -- 25
2020-06-23 19:00:00 29.4 4 Norte 16 Sudoeste 0 -- -- 26
2020-06-23 18:00:00 29.8 6 Sudoeste 16 Oeste 0 -- -- 24
2020-06-23 17:00:00 30.4 6 Oeste 19 Noroeste 0 -- -- 27
2020-06-23 16:00:00 30.3 5 Oeste 20 Sudoeste 0 -- -- 28
2020-06-23 15:00:00 29.9 4 Noroeste 17 Sudoeste 0 -- -- 28
2020-06-23 14:00:00 28.6 8 Norte 14 Norte 0 -- -- 31
2020-06-23 13:00:00 28.3 4 Noroeste 11 Sudeste 0 -- -- 33
2020-06-23 12:00:00 26.8 4 Sudeste 15 Sudeste 0 -- -- 32
2020-06-23 11:00:00 25.3 3 Sudeste 12 Sur 0 -- -- 38
2020-06-23 10:00:00 21.4 0 Calma 11 Nordeste 0 -- -- 55
2020-06-23 09:00:00 18.1 7 Nordeste 17 Nordeste 0 -- -- 62
2020-06-23 08:00:00 15.5 4 Nordeste 25 Nordeste 0 -- -- 70
2020-06-23 07:00:00 14.9 6 Nordeste 19 Nordeste 0 -- -- 70
2020-06-23 06:00:00 15.5 8 Nordeste 20 Nordeste 0 -- -- 68
2020-06-23 05:00:00 15.3 9 Nordeste 20 Nordeste 0 -- -- 70
2020-06-23 04:00:00 15.2 9 Nordeste 22 Nordeste 0 -- -- 68
2020-06-23 03:00:00 15.8 10 Nordeste 23 Nordeste 0 -- -- 67
2020-06-23 02:00:00 15.6 10 Nordeste 20 Nordeste 0 -- -- 67
2020-06-23 01:00:00 16.6 6 Nordeste 20 Nordeste 0 -- -- 63
2020-06-23 00:00:00 17.7 14 Nordeste 22 Nordeste 0 -- -- 59
2020-06-22 23:00:00 19.2 14 Nordeste 25 Nordeste 0 -- -- 52
2020-06-22 22:00:00 21.1 15 Nordeste 24 Nordeste 0 -- -- 44
2020-06-22 21:00:00 24 4 Nordeste 17 Noroeste 0 -- -- 38
2020-06-22 20:00:00 26.1 8 Noroeste 22 Noroeste 0 -- -- 35
2020-06-22 19:00:00 27.5 7 Noroeste 20 Noroeste 0 -- -- 32
2020-06-22 18:00:00 28.6 4 Oeste 18 Oeste 0 -- -- 31
2020-06-22 17:00:00 28.5 4 Noroeste 17 Noroeste 0 -- -- 31
2020-06-22 16:00:00 28.2 4 Oeste 21 Noroeste 0 -- -- 29
2020-06-22 15:00:00 26.8 5 Noroeste 18 Noroeste 0 -- -- 31
2020-06-22 14:00:00 25.8 5 Noroeste 22 Noroeste 0 -- -- 35
2020-06-22 13:00:00 24 8 Noroeste 19 Noroeste 0 -- -- 38
2020-06-22 12:00:00 22.2 6 Noroeste 16 Noroeste 0 -- -- 44
2020-06-22 11:00:00 19.7 3 Noroeste 10 Norte 0 -- -- 46
2020-06-22 10:00:00 17.7 3 Oeste 10 Noroeste 0 -- -- 55
2020-06-22 09:00:00 13.7 0 Calma 5 Nordeste 0 -- -- 73
2020-06-22 08:00:00 10.2 3 Norte 9 Nordeste 0 -- -- 82
2020-06-22 07:00:00 10.2 0 Calma 8 Sudeste 0 -- -- 79
2020-06-22 06:00:00 10.8 0 Calma 4 Sur 0 -- -- 76
2020-06-22 05:00:00 11.8 0 Calma 10 Sur 0 -- -- 72
2020-06-22 04:00:00 12.9 4 Sur 9 Oeste 0 -- -- 68
2020-06-22 03:00:00 13.5 0 Calma 16 Oeste 0 -- -- 65
2020-06-22 02:00:00 13.7 7 Oeste 18 Noroeste 0 -- -- 64
2020-06-22 01:00:00 14.4 6 Noroeste 20 Sudoeste 0 -- -- 57
2020-06-22 00:00:00 15.8 6 Sudoeste 29 Noroeste 0 -- -- 49
2020-06-21 23:00:00 17.2 9 Oeste 44 Nordeste 0 -- -- 43
2020-06-21 22:00:00 18.5 15 Norte 51 Norte 0 -- -- 40
2020-06-21 21:00:00 20.4 27 Norte 50 Nordeste 0 -- -- 37
2020-06-21 20:00:00 23.2 8 Nordeste 40 Nordeste 0 -- -- 33
2020-06-21 19:00:00 25.6 10 Norte 27 Noroeste 0 -- -- 32
2020-06-21 18:00:00 26.8 13 Noroeste 40 Noroeste 0 -- -- 31
2020-06-21 17:00:00 26.9 12 Oeste 33 Noroeste 0 -- -- 31
2020-06-21 16:00:00 27.1 10 Noroeste 35 Noroeste 0 -- -- 31
2020-06-21 15:00:00 26.8 12 Noroeste 31 Noroeste 0 -- -- 31
2020-06-21 14:00:00 25.9 8 Noroeste 28 Noroeste 0 -- -- 33
2020-06-21 13:00:00 24.6 8 Noroeste 26 Noroeste 0 -- -- 37
2020-06-21 12:00:00 23.5 5 Noroeste 16 Noroeste 0 -- -- 38
2020-06-21 11:00:00 21.6 0 Calma 9 Nordeste 0 -- -- 40
2020-06-21 10:00:00 17.8 2 Norte 5 Norte 0 -- -- 51
2020-06-21 09:00:00 14.6 0 Calma 10 Nordeste 0 -- -- 59
2020-06-21 08:00:00 11.1 8 Nordeste 14 Nordeste 0 -- -- 68
2020-06-21 07:00:00 10.2 4 Nordeste 15 Nordeste 0 -- -- 68
2020-06-21 06:00:00 10.2 2 Nordeste 15 Nordeste 0 -- -- 66
2020-06-21 05:00:00 10.9 0 Calma 14 Nordeste 0 -- -- 62
2020-06-21 04:00:00 11.5 5 Nordeste 12 Nordeste 0 -- -- 60
2020-06-21 03:00:00 12.2 0 Calma 20 Este 0 -- -- 59
2020-06-21 02:00:00 12.7 7 Nordeste 17 Nordeste 0 -- -- 59
2020-06-21 01:00:00 14.2 3 Norte 11 Norte 0 -- -- 57
2020-06-21 00:00:00 14.8 8 Norte 19 Nordeste 0 -- -- 59
2020-06-20 23:00:00 16.6 11 Nordeste 21 Nordeste 0 -- -- 54
2020-06-20 22:00:00 18.2 10 Nordeste 23 Nordeste 0 -- -- 49
2020-06-20 21:00:00 21.3 9 Norte 20 Norte 0 -- -- 38
2020-06-20 20:00:00 24.1 9 Norte 22 Noroeste 0 -- -- 34
2020-06-20 19:00:00 25.1 6 Noroeste 22 Noroeste 0 -- -- 32
2020-06-20 18:00:00 25.9 7 Noroeste 25 Noroeste 0 -- -- 31
2020-06-20 17:00:00 25.9 6 Noroeste 29 Noroeste 0 -- -- 31
2020-06-20 16:00:00 25.7 10 Noroeste 28 Noroeste 0 -- -- 36
2020-06-20 15:00:00 25.3 7 Noroeste 27 Noroeste 0 -- -- 41
2020-06-20 14:00:00 24.3 9 Noroeste 19 Noroeste 0 -- -- 44
2020-06-20 13:00:00 24.6 5 Noroeste 18 Noroeste 0 -- -- 46
2020-06-20 12:00:00 22.6 3 Norte 15 Noroeste 0 -- -- 51
2020-06-20 11:00:00 20.9 4 Noroeste 11 Noroeste 0 -- -- 53
2020-06-20 10:00:00 18.5 4 Norte 8 Noroeste 0 -- -- 55
2020-06-20 09:00:00 17 0 Calma 9 Este 0 -- -- 59
2020-06-20 08:00:00 14.1 0 Calma 13 Nordeste 0 -- -- 70
2020-06-20 07:00:00 12.9 4 Nordeste 16 Nordeste 0 -- -- 68
2020-06-20 06:00:00 12.8 7 Nordeste 17 Nordeste 0 -- -- 67
2020-06-20 05:00:00 11.7 8 Nordeste 21 Nordeste 0 -- -- 73
2020-06-20 04:00:00 12.3 8 Nordeste 23 Nordeste 0 -- -- 70
2020-06-20 03:00:00 12.7 8 Nordeste 15 Nordeste 0 -- -- 69
2020-06-20 02:00:00 13.6 7 Nordeste 15 Nordeste 0 -- -- 67
2020-06-20 01:00:00 14.7 8 Nordeste 15 Nordeste 0 -- -- 62
2020-06-20 00:00:00 15.8 6 Nordeste 19 Nordeste 0 -- -- 55
2020-06-19 23:00:00 16.6 8 Norte 26 Nordeste 0 -- -- 52
2020-06-19 22:00:00 17.5 13 Nordeste 23 Nordeste 0 -- -- 47
2020-06-19 21:00:00 20.1 4 Nordeste 15 Noroeste 0 -- -- 41
2020-06-19 20:00:00 22.5 6 Noroeste 24 Noroeste 0 -- -- 35
2020-06-19 19:00:00 23.5 10 Noroeste 24 Noroeste 0 -- -- 34
2020-06-19 18:00:00 23.8 7 Noroeste 24 Noroeste 0 -- -- 34
2020-06-19 17:00:00 23.6 8 Oeste 22 Oeste 0 -- -- 37
2020-06-19 16:00:00 23.3 9 Sudoeste 20 Oeste 0 -- -- 36
2020-06-19 15:00:00 22.3 7 Noroeste 19 Norte 0 -- -- 40
2020-06-19 14:00:00 23.5 8 Sudoeste 18 Sudoeste 0 -- -- 42
2020-06-19 13:00:00 21.9 0 Calma 15 Nordeste 0 -- -- 43
2020-06-19 12:00:00 20.5 3 Sur 18 Sudeste 0 -- -- 47
2020-06-19 11:00:00 18.5 5 Sudeste 18 Este 0 -- -- 47
2020-06-19 10:00:00 14.8 2 Este 18 Nordeste 0 -- -- 63
2020-06-19 09:00:00 12.2 3 Nordeste 22 Norte 0 -- -- 67
2020-06-19 08:00:00 11.2 9 Nordeste 21 Nordeste 0 -- -- 67
2020-06-19 07:00:00 10.8 6 Nordeste 20 Nordeste 0 -- -- 68
2020-06-19 06:00:00 10.7 10 Nordeste 24 Nordeste 0 -- -- 70
2020-06-19 05:00:00 11.2 9 Nordeste 21 Norte 0 -- -- 68
2020-06-19 04:00:00 11.9 9 Nordeste 14 Nordeste 0 -- -- 67
2020-06-19 03:00:00 12.4 6 Nordeste 16 Nordeste 0 -- -- 64
2020-06-19 02:00:00 12.9 4 Nordeste 11 Nordeste 0 -- -- 61
2020-06-19 01:00:00 13.3 2 Nordeste 11 Nordeste 0 -- -- 58
2020-06-19 00:00:00 13.6 6 Nordeste 14 Nordeste 0 -- -- 55
2020-06-18 23:00:00 14.6 5 Nordeste 12 Norte 0 -- -- 48
2020-06-18 22:00:00 15.4 5 Nordeste 16 Noroeste 0 -- -- 44
2020-06-18 21:00:00 16.7 6 Norte 16 Noroeste 0 -- -- 42
2020-06-18 20:00:00 17.9 8 Norte 18 Norte 0 -- -- 38
2020-06-18 19:00:00 19.9 10 Norte 21 Noroeste 0 -- -- 34
2020-06-18 18:00:00 19.4 5 Norte 21 Noroeste 0 -- -- 34
2020-06-18 17:00:00 21 4 Norte 22 Noroeste 0 -- -- 33
2020-06-18 16:00:00 20.8 8 Noroeste 22 Noroeste 0 -- -- 34
2020-06-18 15:00:00 20.1 7 Noroeste 19 Oeste 0 -- -- 40
2020-06-18 14:00:00 18.1 5 Norte 17 Noroeste 0 -- -- 44
2020-06-18 13:00:00 16.6 5 Norte 11 Sudoeste 0 -- -- 51
2020-06-18 12:00:00 15.4 3 Oeste 15 Sudoeste 0 -- -- 63
2020-06-18 11:00:00 12.8 3 Oeste 24 Oeste 0 -- -- 83
2020-06-18 10:00:00 11.3 4 Oeste 13 Noroeste 0 -- -- 85
2020-06-18 09:00:00 10.7 4 Nordeste 30 Noroeste 1.5 -- -- 83
2020-06-18 08:00:00 9.8 4 Nordeste 24 Nordeste 0 -- -- 72
2020-06-18 07:00:00 9.4 6 Nordeste 13 Nordeste 0 -- -- 72
2020-06-18 06:00:00 9.5 3 Sudeste 14 Nordeste 0 -- -- 73
2020-06-18 05:00:00 9 7 Nordeste 16 Nordeste 0 -- -- 72
2020-06-18 04:00:00 9.1 0 Calma 11 Nordeste 0 -- -- 72
2020-06-18 03:00:00 8.8 4 Nordeste 12 Este 0 -- -- 72
2020-06-18 02:00:00 9 5 Nordeste 17 Nordeste 0 -- -- 70
2020-06-18 01:00:00 9.3 0 Calma 10 Norte 0 -- -- 68
2020-06-18 00:00:00 10.5 0 Calma 18 Noroeste 0 -- -- 59
2020-06-17 23:00:00 12.2 6 Oeste 24 Norte 0 -- -- 47
2020-06-17 22:00:00 13.3 4 Norte 21 Noroeste 0 -- -- 43
2020-06-17 21:00:00 15.4 9 Norte 21 Noroeste 0 -- -- 39
2020-06-17 20:00:00 17.6 12 Noroeste 25 Oeste 0 -- -- 35
2020-06-17 19:00:00 19 6 Noroeste 26 Noroeste 0 -- -- 33
2020-06-17 18:00:00 19.3 9 Oeste 26 Noroeste 0 -- -- 34
2020-06-17 17:00:00 18.8 8 Oeste 23 Oeste 0 -- -- 32
2020-06-17 16:00:00 19.9 8 Oeste 24 Sudoeste 0 -- -- 35
2020-06-17 15:00:00 19.4 9 Noroeste 29 Norte 0 -- -- 35
2020-06-17 14:00:00 18.7 9 Noroeste 30 Noroeste 0 -- -- 37
2020-06-17 13:00:00 18.5 5 Noroeste 27 Noroeste 0 -- -- 40
2020-06-17 12:00:00 16.5 9 Sudoeste 20 Oeste 0 -- -- 43
2020-06-17 11:00:00 14.9 3 Noroeste 19 Sudoeste 0 -- -- 53
2020-06-17 10:00:00 12.7 4 Oeste 10 Oeste 0 -- -- 63
2020-06-17 09:00:00 10 3 Norte 7 Noroeste 0 -- -- 81
2020-06-17 08:00:00 7.4 3 Nordeste 6 Norte 0 -- -- 88
2020-06-17 07:00:00 6.7 2 Norte 6 Norte 0 -- -- 87
2020-06-17 06:00:00 6.8 3 Sudeste 5 Sudeste 0 -- -- 85
2020-06-17 05:00:00 6.8 0 Calma 8 Noroeste 0 -- -- 81
2020-06-17 04:00:00 8 3 Noroeste 13 Noroeste 0 -- -- 78
2020-06-17 03:00:00 8.9 6 Noroeste 14 Noroeste 0 -- -- 77
2020-06-17 02:00:00 9.5 4 Oeste 18 Noroeste 0 -- -- 75
2020-06-17 01:00:00 10.2 6 Oeste 16 Noroeste 0 -- -- 78
2020-06-17 00:00:00 10.7 5 Oeste 15 Noroeste 0 -- -- 77
2020-06-16 23:00:00 11.4 3 Noroeste 12 Noroeste 0 -- -- 73
2020-06-16 22:00:00 12.1 2 Oeste 15 Noroeste 0 -- -- 72
2020-06-16 21:00:00 13.3 2 Noroeste 14 Oeste 0 -- -- 70
2020-06-16 20:00:00 14.1 6 Noroeste 18 Noroeste 0 -- -- 75
2020-06-16 19:00:00 14.3 2 Noroeste 14 Sudoeste 0 -- -- 79
2020-06-16 18:00:00 14.4 3 Noroeste 19 Norte 0.4 -- -- 79
2020-06-16 17:00:00 12.7 20 Norte 29 Nordeste 0.2 -- -- 67
2020-06-16 16:00:00 14.6 18 Norte 30 Nordeste 0.1 -- -- 58
2020-06-16 15:00:00 19.8 4 Oeste 15 Norte 0 -- -- 51
2020-06-16 14:00:00 17.5 3 Noroeste 14 Sur 0 -- -- 64
2020-06-16 13:00:00 16.3 0 Calma 9 Sudeste 0.2 -- -- 73
2020-06-16 12:00:00 12.8 4 Sur 9 Sur 0.3 -- -- 76
2020-06-16 11:00:00 12.6 0 Calma 6 Sudeste 0.7 -- -- 85
2020-06-16 10:00:00 12.1 4 Sudeste 10 Este 0.3 -- -- 85
2020-06-16 09:00:00 11.9 3 Este 8 Este 0 -- -- 87
2020-06-16 08:00:00 11.3 0 Calma 9 Norte 0.6 -- -- 86
2020-06-16 07:00:00 10.7 3 Este 13 Este 1.3 -- -- 85
2020-06-16 06:00:00 11 7 Nordeste 14 Nordeste 0.3 -- -- 85
2020-06-16 05:00:00 11.4 0 Calma 4 Noroeste 0.1 -- -- 78
2020-06-16 04:00:00 11.7 0 Calma 3 Nordeste 0 -- -- 72
2020-06-16 03:00:00 12 0 Calma 6 Noroeste 0 -- -- 68
2020-06-16 02:00:00 12.2 2 Norte 10 Noroeste 0 -- -- 68
2020-06-16 01:00:00 12.9 4 Noroeste 12 Noroeste 0 -- -- 64
2020-06-16 00:00:00 13.6 4 Oeste 12 Oeste 0 -- -- 61
2020-06-15 23:00:00 14.7 5 Sudoeste 9 Sudoeste 0 -- -- 49
2020-06-15 22:00:00 15.4 4 Nordeste 21 Norte 0 -- -- 46
2020-06-15 21:00:00 16.9 11 Norte 23 Norte 0 -- -- 42
2020-06-15 20:00:00 17.9 8 Norte 23 Noroeste 0 -- -- 42
2020-06-15 19:00:00 18.5 11 Norte 25 Norte 0 -- -- 39
2020-06-15 18:00:00 19.2 9 Noroeste 30 Noroeste 0 -- -- 37
2020-06-15 17:00:00 21 10 Norte 25 Noroeste 0 -- -- 36
2020-06-15 16:00:00 20.7 10 Noroeste 28 Noroeste 0 -- -- 36
2020-06-15 15:00:00 21.3 9 Noroeste 25 Noroeste 0 -- -- 37
2020-06-15 14:00:00 20.3 6 Noroeste 22 Oeste 0 -- -- 38
2020-06-15 13:00:00 19.9 8 Noroeste 26 Noroeste 0 -- -- 40
2020-06-15 12:00:00 18.5 6 Noroeste 19 Noroeste 0 -- -- 44
2020-06-15 11:00:00 17.3 6 Sudoeste 12 Oeste 0 -- -- 51
2020-06-15 10:00:00 14.9 3 Norte 7 Nordeste 0 -- -- 63
2020-06-15 09:00:00 12.7 4 Norte 13 Nordeste 0 -- -- 70
2020-06-15 08:00:00 10.7 6 Nordeste 13 Nordeste 0 -- -- 79
2020-06-15 07:00:00 9.8 3 Nordeste 9 Sudeste 0 -- -- 79
2020-06-15 06:00:00 10 3 Sudeste 12 Nordeste 0 -- -- 79
2020-06-15 05:00:00 9.5 5 Nordeste 14 Nordeste 0 -- -- 79
2020-06-15 04:00:00 9.4 8 Nordeste 15 Nordeste 0 -- -- 81
2020-06-15 03:00:00 10.2 2 Norte 10 Noroeste 0 -- -- 73
2020-06-15 02:00:00 11.4 4 Norte 14 Nordeste 0 -- -- 70
2020-06-15 01:00:00 12.9 0 Calma 12 Nordeste 0 -- -- 63
2020-06-15 00:00:00 13.6 4 Oeste 11 Oeste 0 -- -- 61
2020-06-14 23:00:00 14.6 3 Noroeste 11 Nordeste 0 -- -- 54
2020-06-14 22:00:00 15.1 8 Nordeste 21 Nordeste 0 -- -- 51
2020-06-14 21:00:00 16.3 8 Norte 15 Nordeste 0 -- -- 46
2020-06-14 20:00:00 16.8 10 Norte 19 Norte 0 -- -- 44
2020-06-14 19:00:00 17.5 12 Norte 21 Noroeste 0 -- -- 42
2020-06-14 18:00:00 19.5 5 Noroeste 16 Noroeste 0 -- -- 40
2020-06-14 17:00:00 20.5 7 Noroeste 19 Noroeste 0 -- -- 35
2020-06-14 16:00:00 20.4 5 Sudoeste 14 Noroeste 0 -- -- 34
2020-06-14 15:00:00 19.4 6 Sudoeste 15 Sudoeste 0 -- -- 37
2020-06-14 14:00:00 19.6 3 Noroeste 17 Norte 0 -- -- 40
2020-06-14 13:00:00 17.8 4 Noroeste 12 Sudoeste 0 -- -- 44
2020-06-14 12:00:00 16.5 0 Calma 10 Noroeste 0 -- -- 49
2020-06-14 11:00:00 14.5 0 Calma 6 Sur 0 -- -- 55
2020-06-14 10:00:00 13.4 0 Calma 7 Sudeste 0 -- -- 60
2020-06-14 09:00:00 11.4 0 Calma 6 Nordeste 0 -- -- 73
2020-06-14 08:00:00 9.5 3 Este 9 Sudeste 0 -- -- 77
2020-06-14 07:00:00 8.9 4 Este 9 Este 0 -- -- 76
2020-06-14 06:00:00 8.4 0 Calma 12 Nordeste 0 -- -- 76
2020-06-14 05:00:00 8.8 6 Nordeste 20 Nordeste 0 -- -- 74
2020-06-14 04:00:00 8.3 8 Nordeste 17 Nordeste 0 -- -- 76
2020-06-14 03:00:00 8.6 7 Nordeste 16 Este 0 -- -- 74
2020-06-14 02:00:00 9.4 3 Este 21 Nordeste 0 -- -- 70
2020-06-14 01:00:00 9.1 6 Nordeste 18 Nordeste 0 -- -- 73
2020-06-14 00:00:00 9.5 9 Nordeste 26 Nordeste 0 -- -- 70
2020-06-13 23:00:00 10.5 12 Nordeste 23 Nordeste 0 -- -- 67
2020-06-13 22:00:00 12.1 12 Nordeste 22 Nordeste 0 -- -- 55
2020-06-13 21:00:00 14.9 6 Norte 21 Norte 0 -- -- 45
2020-06-13 20:00:00 16.9 9 Noroeste 26 Noroeste 0 -- -- 38
2020-06-13 19:00:00 18.2 9 Norte 23 Norte 0 -- -- 40
2020-06-13 18:00:00 18.3 14 Norte 26 Norte 0 -- -- 38
2020-06-13 17:00:00 19.1 8 Noroeste 31 Noroeste 0 -- -- 36
2020-06-13 16:00:00 18 6 Noroeste 26 Noroeste 0 -- -- 41
2020-06-13 15:00:00 18.7 9 Noroeste 28 Noroeste 0 -- -- 41
2020-06-13 14:00:00 18.4 5 Noroeste 23 Noroeste 0 -- -- 43
2020-06-13 13:00:00 15 9 Norte 26 Noroeste 0.1 -- -- 58
2020-06-13 12:00:00 13.3 7 Oeste 26 Noroeste 0.4 -- -- 63
2020-06-13 11:00:00 11.7 10 Norte 28 Norte 0 -- -- 70
2020-06-13 10:00:00 11.4 2 Noroeste 7 Noroeste 0 -- -- 85
2020-06-13 09:00:00 10.2 0 Calma 8 Norte 0 -- -- 88
2020-06-13 08:00:00 9 2 Este 11 Nordeste 0 -- -- 88
2020-06-13 07:00:00 8.4 4 Nordeste 12 Nordeste 0 -- -- 87
2020-06-13 06:00:00 8.2 0 Calma 18 Nordeste 0 -- -- 87
2020-06-13 05:00:00 8.2 3 Nordeste 14 Nordeste 0 -- -- 87
2020-06-13 04:00:00 8.5 3 Este 16 Nordeste 0 -- -- 87
2020-06-13 03:00:00 8.4 2 Este 16 Nordeste 0.1 -- -- 87
2020-06-13 02:00:00 8.7 4 Nordeste 17 Nordeste 0 -- -- 87
2020-06-13 01:00:00 8.7 3 Este 14 Nordeste 0 -- -- 87
2020-06-13 00:00:00 9.2 5 Este 12 Sudeste 0.1 -- -- 87
2020-06-12 23:00:00 9.3 4 Este 17 Nordeste 0.1 -- -- 87
2020-06-12 22:00:00 9.6 4 Norte 13 Nordeste 2.7 -- -- 87
2020-06-12 21:00:00 9.7 11 Nordeste 28 Nordeste 1.2 -- -- 86
2020-06-12 20:00:00 10.5 10 Nordeste 24 Noroeste 1.5 -- -- 82
2020-06-12 19:00:00 11.6 6 Nordeste 21 Nordeste 0 -- -- 63
2020-06-12 18:00:00 13.6 3 Nordeste 14 Sudeste 0 -- -- 44
2020-06-12 17:00:00 14.9 4 Oeste 21 Sur 0 -- -- 42
2020-06-12 16:00:00 15 6 Sur 22 Sur 0 -- -- 40
2020-06-12 15:00:00 13.5 4 Sur 18 Sudoeste 0 -- -- 42
2020-06-12 14:00:00 14.4 10 Sudoeste 21 Sudoeste 0 -- -- 42
2020-06-12 13:00:00 13.1 5 Sudoeste 20 Sudoeste 0 -- -- 46
2020-06-12 12:00:00 11.7 6 Sudoeste 18 Sudoeste 0 -- -- 52
2020-06-12 11:00:00 12.1 2 Sur 17 Sudoeste 0 -- -- 48
2020-06-12 10:00:00 10.8 5 Sur 15 Sudoeste 0 -- -- 49
2020-06-12 09:00:00 10 4 Sur 27 Sur 0 -- -- 58
2020-06-12 08:00:00 8.9 4 Sudeste 15 Sudeste 0 -- -- 86
2020-06-12 07:00:00 8.4 3 Sudeste 11 Sudeste 0 -- -- 88
2020-06-12 06:00:00 8.3 3 Sudeste 9 Sudeste 0 -- -- 88
2020-06-12 05:00:00 8.2 2 Sudeste 6 Sudeste 0 -- -- 88
2020-06-12 04:00:00 8.1 2 Nordeste 8 Nordeste 0 -- -- 88
2020-06-12 03:00:00 7.8 0 Calma 8 Oeste 0.1 -- -- 88
2020-06-12 02:00:00 8.4 3 Noroeste 17 Noroeste 2 -- -- 88
2020-06-12 01:00:00 9.1 7 Noroeste 25 Sudoeste 1.9 -- -- 88
2020-06-12 00:00:00 9.5 4 Sudoeste 24 Noroeste 0.6 -- -- 83
2020-06-11 23:00:00 11.6 2 Sudoeste 11 Sudeste 0 -- -- 82
2020-06-11 22:00:00 12.4 0 Calma 19 Sudeste 0 -- -- 82
2020-06-11 21:00:00 12.7 5 Sudeste 22 Sudeste 0 -- -- 78
2020-06-11 20:00:00 13.3 8 Este 22 Sudeste 0.3 -- -- 76
2020-06-11 19:00:00 14.2 9 Sudeste 22 Sudeste 0.1 -- -- 70
2020-06-11 18:00:00 13.9 7 Sudeste 20 Sudeste 0.1 -- -- 72
2020-06-11 17:00:00 15.5 9 Sudeste 23 Sudeste 0 -- -- 59
2020-06-11 16:00:00 15.2 6 Sudeste 21 Sudeste 0.2 -- -- 68
2020-06-11 15:00:00 13.6 6 Sudeste 18 Este 0 -- -- 61
2020-06-11 14:00:00 14.7 3 Sudeste 13 Este 0.1 -- -- 55
2020-06-11 13:00:00 14.8 3 Este 17 Este 0.2 -- -- 59
2020-06-11 12:00:00 14.5 7 Sudeste 17 Sudeste 0 -- -- 49
2020-06-11 11:00:00 13.5 6 Sur 14 Sudeste 0 -- -- 57
2020-06-11 10:00:00 12.5 6 Sudeste 14 Este 0 -- -- 70
2020-06-11 09:00:00 10.7 3 Nordeste 14 Este 0 -- -- 78
2020-06-11 08:00:00 9.7 4 Este 13 Sudeste 0 -- -- 79
2020-06-11 07:00:00 9.4 4 Este 10 Sudeste 0 -- -- 79
2020-06-11 06:00:00 9.3 3 Este 11 Nordeste 0 -- -- 79
2020-06-11 05:00:00 9.4 3 Este 16 Nordeste 0 -- -- 78
2020-06-11 04:00:00 9.6 6 Nordeste 10 Nordeste 0.5 -- -- 73
2020-06-11 03:00:00 11.2 0 Calma 5 Oeste 0 -- -- 55
2020-06-11 02:00:00 11.2 4 Noroeste 14 Nordeste 0 -- -- 51
2020-06-11 01:00:00 11.4 11 Nordeste 21 Nordeste 0 -- -- 51
2020-06-11 00:00:00 11.3 9 Nordeste 21 Nordeste 0 -- -- 56
2020-06-10 23:00:00 11.7 12 Nordeste 20 Norte 0 -- -- 49
2020-06-10 22:00:00 12.1 4 Norte 17 Nordeste 0 -- -- 64
2020-06-10 21:00:00 12.4 6 Norte 17 Noroeste 0 -- -- 62
2020-06-10 20:00:00 13.8 6 Noroeste 20 Noroeste 0 -- -- 51
2020-06-10 19:00:00 14.5 9 Noroeste 30 Noroeste 0 -- -- 46
2020-06-10 18:00:00 15.5 9 Noroeste 27 Norte 0 -- -- 42
2020-06-10 17:00:00 16.5 11 Noroeste 27 Noroeste 0 -- -- 38
2020-06-10 16:00:00 18.8 8 Noroeste 31 Noroeste 0 -- -- 37
2020-06-10 15:00:00 19.7 10 Noroeste 30 Oeste 0 -- -- 34
2020-06-10 14:00:00 19.1 7 Noroeste 22 Noroeste 0 -- -- 34
2020-06-10 13:00:00 18.2 6 Noroeste 18 Noroeste 0 -- -- 38
2020-06-10 12:00:00 16.6 5 Noroeste 19 Noroeste 0 -- -- 43
2020-06-10 11:00:00 14.5 4 Noroeste 14 Noroeste 0 -- -- 47
2020-06-10 10:00:00 12.6 5 Sudoeste 14 Sudoeste 0 -- -- 55
2020-06-10 09:00:00 9.4 4 Sudeste 10 Sudeste 0 -- -- 72
2020-06-10 08:00:00 5.6 0 Calma 8 Sudeste 0 -- -- 85
2020-06-10 07:00:00 4.4 0 Calma 5 Nordeste 0 -- -- 83
2020-06-10 06:00:00 4.6 0 Calma 8 Sudeste 0 -- -- 81
2020-06-10 05:00:00 5.5 0 Calma 6 Sur 0 -- -- 79
2020-06-10 04:00:00 6.4 2 Sur 9 Sur 0 -- -- 76
2020-06-10 03:00:00 6.9 3 Sur 8 Sur 0 -- -- 75
2020-06-10 02:00:00 7.4 3 Oeste 15 Noroeste 0 -- -- 72
2020-06-10 01:00:00 7.7 6 Oeste 19 Oeste 0 -- -- 70
2020-06-10 00:00:00 8.1 6 Noroeste 27 Noroeste 0 -- -- 68
2020-06-09 23:00:00 9 11 Oeste 34 Noroeste 0 -- -- 61
2020-06-09 22:00:00 10.3 9 Noroeste 37 Nordeste 0 -- -- 51
2020-06-09 21:00:00 12.8 6 Norte 27 Nordeste 0 -- -- 45
2020-06-09 20:00:00 14.8 12 Norte 37 Nordeste 0 -- -- 36
2020-06-09 19:00:00 16.3 21 Nordeste 42 Nordeste 0 -- -- 34
2020-06-09 18:00:00 17.8 16 Norte 35 Nordeste 0 -- -- 34
2020-06-09 17:00:00 19 14 Noroeste 35 Oeste 0 -- -- 33
2020-06-09 16:00:00 19.7 12 Noroeste 37 Noroeste 0 -- -- 34
2020-06-09 15:00:00 19 10 Noroeste 33 Noroeste 0 -- -- 35
2020-06-09 14:00:00 18.7 9 Sudoeste 30 Noroeste 0 -- -- 37
2020-06-09 13:00:00 16.4 10 Sudoeste 29 Sudoeste 0 -- -- 36
2020-06-09 12:00:00 17.2 4 Oeste 22 Noroeste 0 -- -- 40
2020-06-09 11:00:00 14.5 6 Oeste 20 Norte 0 -- -- 48
2020-06-09 10:00:00 11.6 5 Noroeste 18 Oeste 0 -- -- 59
2020-06-09 09:00:00 8.8 4 Noroeste 11 Noroeste 0 -- -- 75
2020-06-09 08:00:00 5.8 0 Calma 6 Sudeste 0 -- -- 83
2020-06-09 07:00:00 4.8 0 Calma 9 Oeste 0 -- -- 81
2020-06-09 06:00:00 5.7 3 Oeste 10 Noroeste 0 -- -- 82
2020-06-09 05:00:00 6 3 Sudoeste 13 Noroeste 0 -- -- 81
2020-06-09 04:00:00 6.2 7 Noroeste 19 Noroeste 0 -- -- 81
2020-06-09 03:00:00 6.6 5 Oeste 23 Noroeste 0 -- -- 81
2020-06-09 02:00:00 6.8 9 Oeste 27 Noroeste 0 -- -- 81
2020-06-09 01:00:00 7.5 7 Oeste 23 Noroeste 0 -- -- 82
2020-06-09 00:00:00 7.4 12 Noroeste 27 Oeste 0 -- -- 79
2020-06-08 23:00:00 8 9 Noroeste 29 Noroeste 0 -- -- 72
2020-06-08 22:00:00 9.1 10 Noroeste 23 Noroeste 0 -- -- 63
2020-06-08 21:00:00 12.1 9 Noroeste 29 Noroeste 0 -- -- 43
2020-06-08 20:00:00 14.7 6 Norte 37 Nordeste 0 -- -- 37
2020-06-08 19:00:00 16.3 16 Nordeste 49 Nordeste 0 -- -- 35
2020-06-08 18:00:00 16 34 Nordeste 51 Norte 0 -- -- 34
2020-06-08 17:00:00 17.8 15 Noroeste 46 Noroeste 0 -- -- 34
2020-06-08 16:00:00 18.1 13 Noroeste 42 Noroeste 0 -- -- 35
2020-06-08 15:00:00 16.8 12 Norte 31 Noroeste 0 -- -- 31
2020-06-08 14:00:00 17.4 10 Noroeste 30 Sudoeste 0 -- -- 34
2020-06-08 13:00:00 16.7 10 Oeste 30 Sudoeste 0 -- -- 35
2020-06-08 12:00:00 16.6 4 Oeste 17 Sudoeste 0 -- -- 38
2020-06-08 11:00:00 13.6 4 Noroeste 17 Noroeste 0 -- -- 47
2020-06-08 10:00:00 11.1 3 Noroeste 13 Noroeste 0 -- -- 59
2020-06-08 09:00:00 8.2 0 Calma 8 Sudeste 0 -- -- 68
2020-06-08 08:00:00 4.5 0 Calma 7 Sur 0 -- -- 84
2020-06-08 07:00:00 3.6 0 Calma 7 Sudoeste 0 -- -- 83
2020-06-08 06:00:00 4.1 0 Calma 6 Sudeste 0 -- -- 81
2020-06-08 05:00:00 4.7 0 Calma 15 Oeste 0 -- -- 79
2020-06-08 04:00:00 5.1 5 Noroeste 17 Noroeste 0 -- -- 79
2020-06-08 03:00:00 5.2 5 Oeste 12 Noroeste 0 -- -- 77
2020-06-08 02:00:00 5.7 2 Oeste 13 Oeste 0 -- -- 77
2020-06-08 01:00:00 5.9 5 Oeste 21 Oeste 0 -- -- 75
2020-06-08 00:00:00 6.3 9 Noroeste 26 Sudoeste 0 -- -- 74
2020-06-07 23:00:00 7.2 8 Oeste 25 Sudoeste 0 -- -- 69
2020-06-07 22:00:00 8.5 4 Noroeste 21 Noroeste 0 -- -- 62
2020-06-07 21:00:00 11.1 8 Noroeste 21 Oeste 0 -- -- 53
2020-06-07 20:00:00 13.8 5 Noroeste 20 Noroeste 0 -- -- 47
2020-06-07 19:00:00 14.3 9 Noroeste 31 Noroeste 0 -- -- 47
2020-06-07 18:00:00 16.8 7 Norte 32 Nordeste 0 -- -- 44
2020-06-07 17:00:00 17.9 10 Noroeste 31 Noroeste 0 -- -- 40
2020-06-07 16:00:00 17.3 12 Noroeste 27 Noroeste 0 -- -- 46
2020-06-07 15:00:00 18.1 10 Norte 23 Noroeste 0 -- -- 44
2020-06-07 14:00:00 18.2 6 Noroeste 25 Noroeste 0 -- -- 47
2020-06-07 13:00:00 17.6 5 Noroeste 19 Noroeste 0 -- -- 55
2020-06-07 12:00:00 15.4 5 Noroeste 19 Noroeste 0 -- -- 72
2020-06-07 11:00:00 12.5 6 Noroeste 18 Noroeste 0 -- -- 83
2020-06-07 10:00:00 11.6 5 Noroeste 14 Noroeste 0 -- -- 87
2020-06-07 09:00:00 11 3 Oeste 12 Oeste 0 -- -- 87
2020-06-07 08:00:00 10.2 4 Noroeste 13 Noroeste 0 -- -- 87
2020-06-07 07:00:00 10.3 3 Oeste 11 Noroeste 0 -- -- 87
2020-06-07 06:00:00 10.4 3 Oeste 10 Noroeste 0.1 -- -- 87
2020-06-07 05:00:00 10.5 4 Oeste 12 Noroeste 0 -- -- 87
2020-06-07 04:00:00 10.6 5 Oeste 13 Noroeste 0 -- -- 87
2020-06-07 03:00:00 10.9 5 Oeste 12 Noroeste 0 -- -- 87
2020-06-07 02:00:00 11.4 3 Noroeste 13 Noroeste 0 -- -- 87
2020-06-07 01:00:00 12.1 3 Oeste 12 Oeste 0 -- -- 87
2020-06-07 00:00:00 12.5 2 Nordeste 10 Noroeste 0.2 -- -- 87